Time;durP1;ratioP1;P1;durP2;ratioP2;P2;SDS_P1;SDS_P2;PMS_P1;PMS_P2;Temp;Humidity;BMP_temperature;BMP_pressure;BME280_temperature;BME280_humidity;BME280_pressure;Samples;Min_cycle;Max_cycle;Signal;HPM_P1;HPM_P2
2022/03/24 00:02:27;;;;;;;3.00;2.23;;;;;;;16.49;52.04;97668.31;10388871;28;20044;-21
2022/03/24 00:07:28;;;;;;;2.50;2.17;;;;;;;16.49;51.65;97663.25;10400556;28;20292;-21
2022/03/24 00:12:28;;;;;;;3.60;1.92;;;;;;;16.49;51.52;97668.31;10387763;28;20277;-22
2022/03/24 00:17:30;;;;;;;2.77;2.43;;;;;;;16.51;51.06;97666.66;10389644;28;20030;-22
2022/03/24 00:22:31;;;;;;;2.78;2.28;;;;;;;16.50;51.35;97661.56;10379366;28;20394;-21
2022/03/24 00:27:31;;;;;;;2.67;2.15;;;;;;;16.46;51.49;97652.22;10382737;28;20036;-21
2022/03/24 00:32:31;;;;;;;2.60;2.35;;;;;;;16.48;51.47;97661.56;10387652;28;20032;-22
2022/03/24 00:37:32;;;;;;;3.83;2.47;;;;;;;16.48;52.26;97648.91;10391137;28;20109;-21
2022/03/24 00:42:35;;;;;;;2.95;2.33;;;;;;;16.51;52.42;97646.44;10368680;28;20034;-22
2022/03/24 00:47:36;;;;;;;2.88;2.35;;;;;;;16.57;52.03;97645.72;10387787;28;20084;-22
2022/03/24 00:52:41;;;;;;;3.17;2.30;;;;;;;16.48;52.11;97636.28;10383676;28;20560;-21
2022/03/24 00:57:43;;;;;;;2.97;2.40;;;;;;;16.49;51.82;97645.56;10384579;28;20030;-22
2022/03/24 01:02:47;;;;;;;2.65;2.35;;;;;;;16.42;51.94;97625.16;10390066;28;20556;-22
2022/03/24 01:07:49;;;;;;;2.00;1.80;;;;;;;16.50;51.68;97638.81;10373576;28;20042;-21
2022/03/24 01:12:51;;;;;;;2.88;1.90;;;;;;;16.43;52.02;97627.72;10368634;28;21420;-22
2022/03/24 01:17:51;;;;;;;2.45;2.25;;;;;;;16.48;51.75;97641.34;10380251;28;20040;-22
2022/03/24 01:22:52;;;;;;;2.17;2.00;;;;;;;16.46;51.74;97632.84;10365321;28;20032;-22
2022/03/24 01:27:53;;;;;;;2.90;2.40;;;;;;;16.47;51.33;97632.06;10382922;28;20038;-21
2022/03/24 01:32:55;;;;;;;2.58;2.30;;;;;;;16.47;51.79;97633.72;10366631;28;20052;-21
2022/03/24 01:37:55;;;;;;;2.40;1.73;;;;;;;16.46;51.45;97627.78;10385360;28;20064;-21
2022/03/24 01:42:56;;;;;;;3.07;2.10;;;;;;;16.49;52.04;97622.81;10384199;28;20296;-21
2022/03/24 01:47:56;;;;;;;3.10;2.60;;;;;;;16.56;52.39;97634.78;10368198;28;20088;-21
2022/03/24 01:52:57;;;;;;;2.30;2.10;;;;;;;16.53;51.92;97624.56;10360934;28;20033;-21
2022/03/24 01:57:57;;;;;;;2.50;2.17;;;;;;;16.56;51.22;97623.78;10387775;28;20022;-22
2022/03/24 02:03:04;;;;;;;2.10;1.85;;;;;;;16.58;51.03;97628.06;10367403;28;20025;-21
2022/03/24 02:08:04;;;;;;;2.78;2.55;;;;;;;16.55;51.00;97617.03;10384272;28;20508;-22
2022/03/24 02:13:05;;;;;;;2.17;1.98;;;;;;;16.57;50.86;97616.25;10364257;28;20033;-21
2022/03/24 02:18:12;;;;;;;2.75;2.28;;;;;;;16.55;51.08;97610.28;10365546;28;20022;-21
2022/03/24 02:23:15;;;;;;;2.88;2.10;;;;;;;16.53;50.85;97608.56;10380186;28;20120;-22
2022/03/24 02:28:15;;;;;;;2.17;1.98;;;;;;;16.55;50.97;97612.81;10385545;28;20030;-22
2022/03/24 02:33:22;;;;;;;2.50;1.77;;;;;;;16.57;51.09;97611.19;10384433;28;20100;-21
2022/03/24 02:38:23;;;;;;;2.78;2.22;;;;;;;16.56;51.13;97606.97;10380690;28;20030;-22
2022/03/24 02:43:24;;;;;;;2.97;2.27;;;;;;;16.55;51.31;97610.28;10379105;28;20494;-21
2022/03/24 02:48:25;;;;;;;1.65;1.50;;;;;;;16.58;51.79;97607.84;10383958;28;20304;-21
2022/03/24 02:53:25;;;;;;;2.37;2.10;;;;;;;16.60;51.61;97601.16;10390940;28;20029;-22
2022/03/24 02:58:26;;;;;;;2.60;2.38;;;;;;;16.58;51.01;97607.84;10392422;28;20288;-21
2022/03/24 03:03:26;;;;;;;2.87;2.33;;;;;;;16.55;50.92;97612.81;10394368;28;20034;-21
2022/03/24 03:08:26;;;;;;;2.35;2.03;;;;;;;16.54;51.28;97613.63;10398322;28;20110;-21
2022/03/24 03:13:27;;;;;;;2.50;1.77;;;;;;;16.54;50.66;97610.28;10392762;28;20041;-21
2022/03/24 03:18:27;;;;;;;3.37;1.80;;;;;;;16.53;50.87;97617.00;10383891;28;20490;-22
2022/03/24 03:23:28;;;;;;;3.40;2.20;;;;;;;16.52;50.64;97622.88;10392095;28;20292;-21
2022/03/24 03:28:28;;;;;;;2.10;1.80;;;;;;;16.53;50.98;97624.56;10389098;28;20076;-21
2022/03/24 03:33:29;;;;;;;1.80;1.70;;;;;;;16.49;50.94;97610.19;10391030;28;20045;-21
2022/03/24 03:38:30;;;;;;;3.80;1.92;;;;;;;16.52;50.97;97622.88;10392084;28;20109;-23
2022/03/24 03:43:32;;;;;;;2.97;2.10;;;;;;;16.50;50.86;97624.53;10386306;28;20112;-21
2022/03/24 03:48:32;;;;;;;2.05;1.85;;;;;;;16.54;51.68;97612.81;10387742;28;20034;-21
2022/03/24 03:53:34;;;;;;;2.80;1.90;;;;;;;16.55;51.71;97617.88;10384354;28;20030;-22
2022/03/24 03:58:36;;;;;;;1.60;1.50;;;;;;;16.56;51.41;97619.63;10389192;28;20405;-22
2022/03/24 04:03:38;;;;;;;2.33;1.83;;;;;;;16.42;51.07;97604.94;10393750;28;20037;-21
2022/03/24 04:08:41;;;;;;;2.10;1.80;;;;;;;16.52;50.54;97616.97;10395149;28;20072;-21
2022/03/24 04:13:42;;;;;;;2.25;2.05;;;;;;;16.52;50.63;97620.34;10390897;28;20040;-23
2022/03/24 04:18:46;;;;;;;2.17;2.00;;;;;;;16.52;51.09;97616.97;10386865;28;20025;-21
2022/03/24 04:23:47;;;;;;;1.92;1.75;;;;;;;16.49;50.68;97609.31;10392809;28;20049;-22
2022/03/24 04:28:48;;;;;;;2.55;2.15;;;;;;;16.51;50.88;97618.66;10387695;28;20038;-22
2022/03/24 04:33:48;;;;;;;2.88;2.15;;;;;;;16.49;50.88;97605.13;10385479;28;20321;-21
2022/03/24 04:38:49;;;;;;;2.33;2.13;;;;;;;16.48;50.70;97611.00;10388167;28;20036;-21
2022/03/24 04:43:49;;;;;;;3.83;1.90;;;;;;;16.50;51.17;97611.00;10382259;28;20080;-21
2022/03/24 04:48:50;;;;;;;2.72;2.10;;;;;;;16.52;51.17;97612.75;10387714;28;20045;-20
2022/03/24 04:53:51;;;;;;;2.13;1.92;;;;;;;16.53;51.75;97617.00;10383431;28;20072;-21
2022/03/24 04:58:52;;;;;;;5.83;2.33;;;;;;;16.49;51.72;97602.59;10387742;28;20072;-21
2022/03/24 05:03:52;;;;;;;2.10;1.90;;;;;;;16.59;51.27;97619.66;10392624;28;20294;-21
2022/03/24 05:08:52;;;;;;;1.90;1.70;;;;;;;16.62;51.07;97623.94;10388136;28;20021;-20
2022/03/24 05:13:53;;;;;;;2.30;2.10;;;;;;;16.61;50.44;97619.72;10383973;28;20080;-21
2022/03/24 05:18:53;;;;;;;1.87;1.70;;;;;;;16.61;50.59;97622.25;10376096;28;20303;-22
2022/03/24 05:23:54;;;;;;;3.10;2.22;;;;;;;16.62;50.57;97629.00;10383899;28;20037;-22
2022/03/24 05:28:54;;;;;;;2.03;1.77;;;;;;;16.61;50.51;97628.13;10381318;28;20033;-22
2022/03/24 05:33:55;;;;;;;1.90;1.80;;;;;;;16.64;50.73;97625.69;10389877;28;20291;-21
2022/03/24 05:38:56;;;;;;;2.22;1.70;;;;;;;16.64;50.91;97628.22;10380260;28;20490;-21
2022/03/24 05:44:06;;;;;;;3.53;1.90;;;;;;;16.62;50.40;97626.47;10382000;28;20064;-22
2022/03/24 05:49:08;;;;;;;3.13;2.22;;;;;;;16.60;50.05;97628.13;10389291;28;20025;-22
2022/03/24 05:54:26;;;;;;;7.65;5.82;;;;;;;16.39;46.21;97632.69;10390003;28;20041;-21
2022/03/24 05:59:26;;;;;;;4.88;2.85;;;;;;;16.53;48.15;97632.16;10385927;28;20022;-22
2022/03/24 06:04:28;;;;;;;6.65;3.67;;;;;;;16.64;49.70;97638.31;10375629;28;20515;-21
2022/03/24 06:09:29;;;;;;;7.28;3.50;;;;;;;16.62;49.85;97634.88;10382756;28;20037;-21
2022/03/24 06:14:31;;;;;;;6.57;3.25;;;;;;;16.64;49.92;97648.44;10380757;28;20034;-22
2022/03/24 06:19:35;;;;;;;4.90;3.15;;;;;;;16.64;49.82;97640.84;10383447;28;20597;-22
2022/03/24 06:24:35;;;;;;;3.33;3.03;;;;;;;16.66;49.76;97651.84;10379226;28;20068;-21
2022/03/24 06:29:35;;;;;;;5.57;3.20;;;;;;;16.66;49.63;97651.84;10385990;28;20096;-21
2022/03/24 06:34:36;;;;;;;5.53;2.87;;;;;;;16.63;50.18;97661.03;10393310;28;20486;-22
2022/03/24 06:39:36;;;;;;;4.87;3.40;;;;;;;16.49;48.66;97653.16;10387933;28;20072;-21
2022/03/24 06:44:36;;;;;;;6.00;3.30;;;;;;;16.60;49.86;97651.69;10371205;28;20033;-21
2022/03/24 06:49:37;;;;;;;5.37;3.40;;;;;;;16.60;50.00;97653.41;10384710;28;20034;-22
2022/03/24 06:54:37;;;;;;;5.57;2.40;;;;;;;16.62;50.25;97650.06;10391943;28;20295;-21
2022/03/24 06:59:38;;;;;;;5.22;3.20;;;;;;;16.60;50.71;97641.59;10390007;28;20037;-21
2022/03/24 07:04:38;;;;;;;9.02;3.13;;;;;;;16.67;51.50;97649.34;10397716;28;20033;-22
2022/03/24 07:09:39;;;;;;;3.78;2.70;;;;;;;16.63;49.57;97655.97;10390354;28;20454;-21
2022/03/24 07:14:39;;;;;;;13.63;3.15;;;;;;;16.66;50.98;97650.97;10387553;28;20025;-21
2022/03/24 07:19:40;;;;;;;44.03;6.93;;;;;;;16.63;50.82;97649.22;10393343;28;20037;-22
2022/03/24 07:24:41;;;;;;;21.63;4.68;;;;;;;16.64;50.47;97653.50;10391860;28;20276;-22
2022/03/24 07:29:41;;;;;;;18.17;4.15;;;;;;;16.62;50.34;97652.59;10381248;28;20120;-22
2022/03/24 07:34:41;;;;;;;15.90;4.78;;;;;;;16.64;50.47;97647.56;10383745;28;20041;-22
2022/03/24 07:39:42;;;;;;;13.27;3.40;;;;;;;16.61;50.29;97655.09;10384560;28;20041;-21
2022/03/24 07:44:42;;;;;;;11.07;2.97;;;;;;;16.69;50.45;97654.44;10390983;28;20029;-23
2022/03/24 07:49:43;;;;;;;8.47;4.20;;;;;;;16.85;50.15;97648.88;10383575;28;20140;-21
2022/03/24 07:54:57;;;;;;;14.85;4.28;;;;;;;16.98;50.15;97651.69;10395964;28;20085;-20
2022/03/24 07:59:59;;;;;;;15.18;3.75;;;;;;;17.05;50.27;97650.13;10387727;28;20201;-21
2022/03/24 08:04:59;;;;;;;18.88;4.50;;;;;;;17.02;50.00;97652.63;10392966;28;20065;-21
2022/03/24 08:09:59;;;;;;;9.50;3.70;;;;;;;16.95;49.85;97651.66;10386104;28;20080;-21
2022/03/24 08:15:00;;;;;;;15.40;3.67;;;;;;;16.92;49.82;97650.72;10383287;28;20025;-21
2022/03/24 08:20:00;;;;;;;8.93;3.50;;;;;;;16.87;50.14;97644.69;10389459;28;20292;-21
2022/03/24 08:25:00;;;;;;;7.17;2.60;;;;;;;16.79;50.22;97644.56;10384937;28;20056;-21
2022/03/24 08:30:02;;;;;;;6.93;3.53;;;;;;;16.73;50.02;97634.31;10383039;28;20415;-22
2022/03/24 08:35:03;;;;;;;9.02;3.33;;;;;;;16.78;49.65;97641.97;10386137;28;20513;-21
2022/03/24 08:40:04;;;;;;;9.75;3.50;;;;;;;16.75;49.78;97641.94;10384542;28;20040;-22
2022/03/24 08:45:07;;;;;;;4.70;3.17;;;;;;;16.75;49.87;97641.94;10388808;28;20068;-21
2022/03/24 08:50:10;;;;;;;11.60;4.45;;;;;;;16.74;49.68;97645.28;10382783;28;20033;-21
2022/03/24 08:55:13;;;;;;;9.65;4.82;;;;;;;16.72;49.70;97636.81;10385693;28;20498;-21
2022/03/24 09:00:17;;;;;;;25.83;4.78;;;;;;;16.68;50.20;97640.09;10383844;28;20041;-21
2022/03/24 09:05:18;;;;;;;22.25;6.70;;;;;;;16.68;50.15;97642.63;10374825;28;20034;-21
2022/03/24 09:10:18;;;;;;;19.30;5.28;;;;;;;16.78;50.25;97647.03;10385954;28;20033;-22
2022/03/24 09:15:19;;;;;;;17.40;5.67;;;;;;;16.90;49.38;97649.84;10381342;28;20052;-21
2022/03/24 09:20:22;;;;;;;9.32;4.60;;;;;;;16.87;49.34;97647.22;10385955;28;20331;-20
2022/03/24 09:25:23;;;;;;;9.23;3.45;;;;;;;16.79;49.57;97644.56;10390095;28;20038;-22
2022/03/24 09:30:24;;;;;;;10.50;3.72;;;;;;;16.74;49.70;97642.75;10392564;28;20113;-22
2022/03/24 09:35:24;;;;;;;8.33;3.43;;;;;;;16.69;49.83;97646.00;10385910;28;20026;-22
2022/03/24 09:40:25;;;;;;;8.03;2.90;;;;;;;16.69;49.94;97641.78;10387791;28;20417;-21
2022/03/24 09:45:26;;;;;;;8.82;3.50;;;;;;;16.67;50.02;97642.56;10385720;28;20124;-22
2022/03/24 09:50:27;;;;;;;5.32;3.05;;;;;;;16.70;49.79;97653.59;10380340;28;20079;-21
2022/03/24 09:55:32;;;;;;;7.63;3.75;;;;;;;16.68;49.66;97652.72;10384128;28;20705;-21
2022/03/24 10:00:33;;;;;;;3.88;3.20;;;;;;;16.70;50.12;97647.72;10385096;28;20508;-22
2022/03/24 10:05:33;;;;;;;7.47;4.07;;;;;;;16.69;49.86;97653.59;10386986;28;20037;-22
2022/03/24 10:10:35;;;;;;;6.67;4.27;;;;;;;16.67;49.74;97644.28;10397274;28;20041;-22
2022/03/24 10:15:38;;;;;;;20.42;7.60;;;;;;;16.76;50.87;97653.75;10393789;28;20065;-22
2022/03/24 10:20:38;;;;;;;15.43;6.53;;;;;;;16.80;50.78;97645.38;10384621;28;20030;-22
2022/03/24 10:25:40;;;;;;;11.60;4.93;;;;;;;16.79;49.73;97641.16;10385482;28;20041;-21
2022/03/24 10:30:51;;;;;;;7.20;3.28;;;;;;;16.76;49.96;97643.63;10391017;28;20045;-21
2022/03/24 10:36:04;;;;;;;8.02;3.58;;;;;;;16.67;49.99;97628.28;10386789;28;20091;-21
2022/03/24 10:41:25;;;;;;;6.32;3.28;;;;;;;16.73;50.37;97632.59;10390565;28;20059;-21
2022/03/24 10:46:31;;;;;;;20.83;4.82;;;;;;;16.72;50.53;97636.81;10382038;28;20108;-22
2022/03/24 10:51:33;;;;;;;14.02;3.90;;;;;;;16.73;50.16;97633.47;10381067;28;20117;-22
2022/03/24 10:56:39;;;;;;;7.20;3.47;;;;;;;16.72;50.00;97629.22;10388354;28;20496;-22
2022/03/24 11:01:40;;;;;;;6.93;3.22;;;;;;;16.73;50.13;97622.47;10392834;28;20034;-22
2022/03/24 11:06:51;;;;;;;6.75;3.20;;;;;;;16.75;50.15;97626.75;10383653;28;20034;-21
2022/03/24 11:12:22;;;;;;;7.65;4.05;;;;;;;16.75;50.15;97619.16;10384915;28;20124;-22
2022/03/24 11:17:24;;;;;;;5.53;3.20;;;;;;;16.75;50.25;97614.13;10387320;28;20032;-21
2022/03/24 11:22:36;;;;;;;9.98;5.47;;;;;;;16.87;50.42;97609.28;10403888;28;20064;-20
2022/03/24 11:27:37;;;;;;;12.63;6.45;;;;;;;16.95;49.92;97610.31;10391699;28;20065;-21
2022/03/24 11:32:41;;;;;;;5.60;3.80;;;;;;;16.87;49.67;97605.09;10394387;28;20036;-21
2022/03/24 11:37:42;;;;;;;10.50;4.35;;;;;;;16.79;50.14;97598.16;10385464;28;20034;-21
2022/03/24 11:42:50;;;;;;;7.70;3.55;;;;;;;16.80;50.26;97595.69;10390667;28;20026;-22
2022/03/24 11:48:01;;;;;;;8.38;3.20;;;;;;;16.81;50.21;97587.25;10391366;28;20033;-21
2022/03/24 11:53:11;;;;;;;3.55;2.45;;;;;;;16.78;50.15;97587.22;10384349;28;20034;-21
2022/03/24 11:58:12;;;;;;;4.25;2.92;;;;;;;16.77;49.89;97574.53;10382695;28;20021;-24
2022/03/24 12:03:54;;;;;;;4.60;3.25;;;;;;;16.76;50.00;97572.84;10382660;28;20033;-21
2022/03/24 12:09:04;;;;;;;7.55;3.50;;;;;;;16.77;50.22;97561.88;10375069;28;20050;-23
2022/03/24 12:14:13;;;;;;;8.27;3.20;;;;;;;16.78;50.01;97556.00;10383229;28;20038;-21
2022/03/24 12:19:39;;;;;;;4.60;3.03;;;;;;;16.77;50.26;97554.31;10375469;28;20034;-22
2022/03/24 12:24:39;;;;;;;13.00;6.05;;;;;;;16.82;51.15;97555.25;10368534;28;20080;-21
2022/03/24 12:29:39;;;;;;;10.70;5.50;;;;;;;16.93;50.86;97548.72;10381806;28;20081;-23
2022/03/24 12:34:40;;;;;;;16.87;5.90;;;;;;;16.93;50.96;97543.66;10379651;28;20026;-23
2022/03/24 12:39:40;;;;;;;4.67;2.90;;;;;;;16.84;50.17;97536.72;10391810;28;20030;-23
2022/03/24 12:44:55;;;;;;;4.83;2.93;;;;;;;16.82;50.35;97527.44;10388872;28;20041;-22
2022/03/24 12:49:57;;;;;;;6.60;3.00;;;;;;;16.80;50.53;97529.06;10387553;28;20292;-22
2022/03/24 12:54:58;;;;;;;5.97;3.42;;;;;;;16.77;50.36;97513.84;10385030;28;20029;-21
2022/03/24 12:59:58;;;;;;;4.33;3.13;;;;;;;16.76;50.20;97524.78;10385107;28;20022;-21
2022/03/24 13:04:59;;;;;;;5.38;3.08;;;;;;;16.74;50.64;97511.28;10388204;28;20288;-21
2022/03/24 13:10:05;;;;;;;3.67;2.55;;;;;;;16.73;50.39;97507.03;10393569;28;20120;-21
2022/03/24 13:15:07;;;;;;;4.25;2.70;;;;;;;16.73;50.32;97498.59;10393406;28;20039;-21
2022/03/24 13:20:08;;;;;;;3.85;2.28;;;;;;;16.72;50.26;97505.34;10385663;28;20417;-21
2022/03/24 13:25:10;;;;;;;5.80;2.97;;;;;;;16.70;50.82;97491.78;10382453;28;20300;-21
2022/03/24 13:30:17;;;;;;;7.47;4.78;;;;;;;16.79;52.18;97491.97;10389539;28;20493;-21
2022/03/24 13:35:20;;;;;;;8.25;4.65;;;;;;;16.92;51.52;97489.69;10383845;28;20049;-21
2022/03/24 13:40:23;;;;;;;9.13;3.83;;;;;;;16.90;51.66;97477.84;10388691;28;20037;-21
2022/03/24 13:45:24;;;;;;;5.85;3.05;;;;;;;16.84;50.44;97475.22;10388053;28;20462;-21
2022/03/24 13:50:27;;;;;;;3.92;2.45;;;;;;;16.77;50.37;97476.78;10386704;28;20039;-21
2022/03/24 13:55:30;;;;;;;4.25;2.90;;;;;;;16.76;50.63;97471.69;10392470;28;20087;-21
2022/03/24 14:00:45;;;;;;;3.67;2.58;;;;;;;16.72;50.76;97459.81;10375031;28;20100;-22
2022/03/24 14:05:52;;;;;;;3.35;2.80;;;;;;;16.72;50.41;97459.81;10385797;28;20524;-21
2022/03/24 14:10:54;;;;;;;3.90;2.60;;;;;;;16.71;50.78;97453.03;10386859;28;20060;-21
2022/03/24 14:16:16;;;;;;;2.88;2.40;;;;;;;16.66;50.48;97439.47;10390374;28;20569;-22
2022/03/24 14:21:16;;;;;;;3.05;2.75;;;;;;;16.70;50.84;97446.28;10384027;28;20034;-21
2022/03/24 14:26:17;;;;;;;3.00;2.00;;;;;;;16.70;50.58;97443.75;10389015;28;20481;-21
2022/03/24 14:31:21;;;;;;;4.07;2.50;;;;;;;16.71;50.89;97435.34;10383857;28;20036;-22
2022/03/24 14:36:22;;;;;;;8.55;3.55;;;;;;;16.79;52.18;97418.63;10390544;28;20032;-21
2022/03/24 14:41:23;;;;;;;5.50;4.20;;;;;;;16.94;52.65;97427.34;10385956;28;20042;-21
2022/03/24 14:46:24;;;;;;;6.78;3.70;;;;;;;16.95;52.25;97424.00;10389101;28;20437;-22
2022/03/24 14:51:24;;;;;;;3.63;2.57;;;;;;;16.84;51.05;97417.03;10397616;28;20045;-21
2022/03/24 14:56:25;;;;;;;6.50;2.42;;;;;;;16.77;50.51;97411.88;10402666;28;20033;-21
2022/03/24 15:01:27;;;;;;;3.50;2.65;;;;;;;16.67;50.85;97400.72;10400876;28;20041;-21
2022/03/24 15:06:27;;;;;;;5.40;2.47;;;;;;;16.73;50.50;97405.03;10391522;28;20137;-21
2022/03/24 15:11:28;;;;;;;4.80;2.60;;;;;;;16.70;51.08;97395.72;10392780;28;20159;-22
2022/03/24 15:16:29;;;;;;;2.83;2.40;;;;;;;16.71;50.88;97407.53;10392922;28;20025;-22
2022/03/24 15:21:30;;;;;;;8.98;2.33;;;;;;;16.69;50.84;97394.00;10398696;28;20103;-21
2022/03/24 15:26:31;;;;;;;5.05;2.40;;;;;;;16.68;50.75;97392.31;10389539;28;20037;-21
2022/03/24 15:31:31;;;;;;;6.45;2.58;;;;;;;16.67;50.85;97385.56;10390640;28;20405;-23
2022/03/24 15:36:32;;;;;;;6.33;2.67;;;;;;;16.67;50.39;97389.75;10396379;28;20456;-22
2022/03/24 15:41:32;;;;;;;8.55;4.20;;;;;;;16.74;52.36;97382.31;10391905;28;20288;-22
2022/03/24 15:46:33;;;;;;;7.32;4.93;;;;;;;16.91;52.67;97385.97;10385248;28;20033;-21
2022/03/24 15:51:33;;;;;;;6.17;4.00;;;;;;;16.97;52.05;97388.59;10385269;28;20040;-22
2022/03/24 15:56:37;;;;;;;4.27;3.00;;;;;;;16.87;51.30;97389.25;10391281;28;20030;-22
2022/03/24 16:01:40;;;;;;;4.60;2.80;;;;;;;16.77;51.26;97382.34;10397374;28;20315;-21
2022/03/24 16:06:41;;;;;;;3.50;2.75;;;;;;;16.66;50.85;97383.84;10391337;28;20410;-21
2022/03/24 16:11:41;;;;;;;3.60;2.83;;;;;;;16.66;50.83;97381.31;10389454;28;20034;-21
2022/03/24 16:16:43;;;;;;;3.20;2.75;;;;;;;16.68;50.60;97392.31;10395295;28;20032;-21
2022/03/24 16:21:43;;;;;;;4.88;2.10;;;;;;;16.68;51.26;97394.84;10392598;28;20034;-21
2022/03/24 16:26:44;;;;;;;4.68;2.47;;;;;;;16.67;51.12;97390.63;10388356;28;20548;-22
2022/03/24 16:31:44;;;;;;;8.77;3.85;;;;;;;16.67;50.89;97395.66;10389062;28;20045;-21
2022/03/24 16:36:44;;;;;;;11.13;3.23;;;;;;;16.64;51.20;97395.63;10385792;28;20030;-21
2022/03/24 16:41:45;;;;;;;7.10;2.95;;;;;;;16.67;51.36;97396.50;10389137;28;20120;-21
2022/03/24 16:46:45;;;;;;;5.17;2.50;;;;;;;16.61;50.94;97389.66;10390560;28;20037;-21
2022/03/24 16:51:46;;;;;;;10.93;5.00;;;;;;;16.92;52.58;97407.91;10381606;28;20824;-21
2022/03/24 16:56:46;;;;;;;27.10;5.93;;;;;;;16.98;51.71;97402.97;10390268;28;20036;-21
2022/03/24 17:01:46;;;;;;;18.97;4.83;;;;;;;16.78;51.23;97376.47;10396485;28;20409;-21
2022/03/24 17:06:47;;;;;;;12.95;3.08;;;;;;;16.81;50.89;97404.34;10389702;28;20466;-21
2022/03/24 17:11:47;;;;;;;5.35;2.65;;;;;;;16.74;50.91;97405.06;10377579;28;20057;-21
2022/03/24 17:16:48;;;;;;;7.60;3.10;;;;;;;16.69;51.81;97411.72;10377769;28;20034;-21
2022/03/24 17:21:48;;;;;;;6.20;2.93;;;;;;;16.72;50.74;97416.84;10387307;28;20330;-22
2022/03/24 17:26:48;;;;;;;4.37;2.60;;;;;;;16.69;50.97;97415.94;10385459;28;20029;-22
2022/03/24 17:31:50;;;;;;;4.13;2.72;;;;;;;16.70;50.60;97423.53;10378989;28;20515;-21
2022/03/24 17:36:51;;;;;;;6.43;2.63;;;;;;;16.67;50.78;97415.91;10388994;28;20501;-21
2022/03/24 17:41:52;;;;;;;7.10;2.47;;;;;;;16.69;50.52;97426.03;10368930;28;20045;-22
2022/03/24 17:46:52;;;;;;;8.03;2.83;;;;;;;16.66;50.86;97419.25;10388201;28;20030;-20
2022/03/24 17:51:54;;;;;;;8.93;3.00;;;;;;;16.60;50.82;97429.25;10380124;28;20485;-22
2022/03/24 17:56:55;;;;;;;8.70;4.63;;;;;;;16.76;52.20;97431.22;10383803;28;20060;-22
2022/03/24 18:01:55;;;;;;;12.57;5.63;;;;;;;16.79;52.88;97441.38;10373660;28;20565;-22
2022/03/24 18:06:55;;;;;;;10.47;5.10;;;;;;;16.80;52.50;97440.56;10365461;28;20069;-21
2022/03/24 18:11:57;;;;;;;12.33;4.70;;;;;;;16.72;51.79;97452.25;10356579;28;20041;-22
2022/03/24 18:16:58;;;;;;;9.40;4.00;;;;;;;16.67;51.79;97454.66;10372241;28;20022;-22
2022/03/24 18:21:58;;;;;;;5.70;3.05;;;;;;;16.66;51.45;97462.22;10367567;28;20026;-22
2022/03/24 18:26:58;;;;;;;11.00;4.20;;;;;;;16.69;51.23;97469.03;10374044;28;20037;-23
2022/03/24 18:31:59;;;;;;;5.50;2.80;;;;;;;16.68;50.97;97473.22;10379473;28;20323;-22
2022/03/24 18:37:00;;;;;;;6.75;2.75;;;;;;;16.66;51.12;97467.28;10381417;28;20032;-22
2022/03/24 18:42:00;;;;;;;3.58;2.70;;;;;;;16.67;50.88;97474.03;10380958;28;20076;-22
2022/03/24 18:47:00;;;;;;;7.33;3.23;;;;;;;16.69;51.13;97477.44;10371930;28;20034;-21
2022/03/24 18:52:03;;;;;;;12.13;3.63;;;;;;;16.71;52.79;97478.31;10383063;28;20038;-22
2022/03/24 18:57:04;;;;;;;12.38;4.65;;;;;;;16.67;53.17;97471.50;10392396;28;20021;-21
2022/03/24 19:02:05;;;;;;;11.25;5.35;;;;;;;16.74;54.08;97465.75;10386774;28;20072;-22
2022/03/24 19:07:06;;;;;;;12.55;5.35;;;;;;;16.86;54.37;97476.94;10389903;28;20116;-22
2022/03/24 19:12:07;;;;;;;7.90;4.50;;;;;;;16.86;53.64;97478.59;10387938;28;20041;-21
2022/03/24 19:17:07;;;;;;;11.38;3.85;;;;;;;16.82;51.52;97486.97;10383303;28;20040;-22
2022/03/24 19:22:08;;;;;;;3.95;2.67;;;;;;;16.76;51.11;97484.31;10389718;28;20037;-22
2022/03/24 19:27:08;;;;;;;6.15;4.20;;;;;;;16.76;52.66;97491.91;10373771;28;20060;-22
2022/03/24 19:32:09;;;;;;;5.47;2.67;;;;;;;16.74;51.87;97491.03;10379012;28;20037;-22
2022/03/24 19:37:09;;;;;;;5.17;2.70;;;;;;;16.72;51.84;97485.09;10383296;28;20029;-21
2022/03/24 19:42:09;;;;;;;4.70;2.60;;;;;;;16.74;51.51;97491.03;10379244;28;20042;-21
2022/03/24 19:47:14;;;;;;;10.87;4.03;;;;;;;16.73;52.00;97497.75;10389910;28;20292;-22
2022/03/24 19:52:15;;;;;;;2.83;2.50;;;;;;;16.73;50.82;97491.88;10387394;28;20083;-22
2022/03/24 19:57:16;;;;;;;4.13;2.67;;;;;;;16.71;51.07;97492.66;10374493;28;20418;-22
2022/03/24 20:02:16;;;;;;;3.45;2.70;;;;;;;16.71;51.17;97502.75;10373933;28;20339;-22
2022/03/24 20:07:17;;;;;;;10.18;5.05;;;;;;;16.80;53.54;97503.78;10379409;28;20040;-22
2022/03/24 20:12:17;;;;;;;7.97;4.10;;;;;;;16.84;54.01;97498.81;10370056;28;20037;-22
2022/03/24 20:17:17;;;;;;;4.63;3.90;;;;;;;16.81;53.73;97495.41;10371595;28;20401;-22
2022/03/24 20:22:18;;;;;;;4.30;3.00;;;;;;;16.74;51.18;97499.47;10373075;28;20416;-22
2022/03/24 20:27:18;;;;;;;4.50;2.93;;;;;;;16.73;52.79;97501.97;10369264;28;20045;-22
2022/03/24 20:32:18;;;;;;;4.10;3.13;;;;;;;16.72;51.21;97505.34;10377678;28;20524;-21
2022/03/24 20:37:19;;;;;;;4.73;2.83;;;;;;;16.71;51.13;97501.06;10370735;28;20041;-22
2022/03/24 20:42:20;;;;;;;3.33;2.50;;;;;;;16.73;51.14;97506.16;10383393;28;20033;-22
2022/03/24 20:47:20;;;;;;;3.60;2.42;;;;;;;16.72;50.71;97505.34;10380052;28;20037;-21
2022/03/24 20:52:21;;;;;;;2.73;2.47;;;;;;;16.73;50.67;97496.06;10356108;28;20061;-22
2022/03/24 20:57:23;;;;;;;3.37;2.70;;;;;;;16.73;50.97;97502.81;10365134;28;20029;-22
2022/03/24 21:02:24;;;;;;;4.22;2.50;;;;;;;16.72;50.66;97500.28;10359843;28;20747;-22
2022/03/24 21:07:24;;;;;;;2.90;2.53;;;;;;;16.73;50.65;97507.03;10375523;28;20033;-21
2022/03/24 21:12:24;;;;;;;7.68;4.00;;;;;;;16.73;54.40;97492.69;10375918;28;20843;-22
2022/03/24 21:17:25;;;;;;;8.23;4.23;;;;;;;16.87;54.97;97510.66;10370512;28;20045;-22
2022/03/24 21:22:26;;;;;;;6.97;4.00;;;;;;;16.88;54.92;97513.22;10375346;28;20667;-21
2022/03/24 21:27:27;;;;;;;6.80;3.70;;;;;;;16.80;54.10;97511.38;10387540;28;20401;-22
2022/03/24 21:32:27;;;;;;;4.97;3.30;;;;;;;16.78;53.85;97510.50;10388862;28;20030;-21
2022/03/24 21:37:28;;;;;;;6.85;2.83;;;;;;;16.78;52.08;97520.59;10393008;28;20068;-22
2022/03/24 21:42:28;;;;;;;5.53;3.63;;;;;;;16.78;53.74;97506.28;10358398;28;20038;-21
2022/03/24 21:47:29;;;;;;;7.53;3.87;;;;;;;16.74;53.66;97514.63;10379140;28;20038;-21
2022/03/24 21:52:29;;;;;;;5.20;2.92;;;;;;;16.73;51.62;97517.16;10380197;28;20030;-21
2022/03/24 21:57:30;;;;;;;4.97;4.40;;;;;;;16.73;51.97;97513.75;10380554;28;20423;-21
2022/03/24 22:02:30;;;;;;;5.57;3.40;;;;;;;16.71;51.63;97507.81;10373387;28;20473;-21
2022/03/24 22:07:31;;;;;;;4.00;2.92;;;;;;;16.72;52.68;97510.41;10381607;28;20030;-21
2022/03/24 22:12:31;;;;;;;6.53;3.70;;;;;;;16.73;51.44;97519.69;10383789;28;20041;-22
2022/03/24 22:17:33;;;;;;;6.32;4.05;;;;;;;16.73;52.84;97518.81;10383827;28;20112;-22
2022/03/24 22:22:33;;;;;;;6.22;4.68;;;;;;;16.81;54.93;97513.09;10383256;28;20447;-22
2022/03/24 22:27:33;;;;;;;6.83;5.40;;;;;;;16.84;54.64;97519.03;10393489;28;20044;-22
2022/03/24 22:32:34;;;;;;;7.17;4.37;;;;;;;16.73;53.26;97508.69;10390006;28;20289;-22
2022/03/24 22:37:35;;;;;;;5.43;4.05;;;;;;;16.69;53.05;97517.91;10382806;28;20030;-22
2022/03/24 22:42:35;;;;;;;5.07;4.22;;;;;;;16.72;52.27;97525.56;10384871;28;20117;-21
2022/03/24 22:47:36;;;;;;;3.60;2.93;;;;;;;16.71;50.86;97523.81;10386015;28;20124;-21
2022/03/24 22:52:37;;;;;;;5.75;4.18;;;;;;;16.71;50.91;97518.78;10388437;28;20030;-22
2022/03/24 22:57:38;;;;;;;3.22;2.42;;;;;;;16.71;51.25;97517.94;10388805;28;20064;-22
2022/03/24 23:02:38;;;;;;;3.97;2.57;;;;;;;16.72;50.91;97515.44;10391957;28;20056;-21
2022/03/24 23:07:39;;;;;;;3.27;2.57;;;;;;;16.70;50.98;97516.22;10385065;28;20041;-21
2022/03/24 23:12:40;;;;;;;3.28;2.75;;;;;;;16.71;50.93;97515.41;10398568;28;20029;-22
2022/03/24 23:17:41;;;;;;;3.92;2.92;;;;;;;16.70;52.11;97517.06;10393547;28;20044;-22
2022/03/24 23:22:42;;;;;;;2.83;2.53;;;;;;;16.71;50.99;97512.88;10381624;28;20490;-21